sensor_id;sensor_type;location;lat;lon;timestamp;P1;durP1;ratioP1;P2;durP2;ratioP2
19043;SDS011;9654;52.302;8.120;2023-06-26T00:00:07;8.53;;;7.20;;
19043;SDS011;9654;52.302;8.120;2023-06-26T00:02:36;7.90;;;7.10;;
19043;SDS011;9654;52.302;8.120;2023-06-26T00:05:03;8.47;;;7.57;;
19043;SDS011;9654;52.302;8.120;2023-06-26T00:07:30;7.60;;;6.90;;
19043;SDS011;9654;52.302;8.120;2023-06-26T00:09:59;8.70;;;7.50;;
19043;SDS011;9654;52.302;8.120;2023-06-26T00:12:25;9.13;;;7.40;;
19043;SDS011;9654;52.302;8.120;2023-06-26T00:14:54;9.27;;;7.27;;
19043;SDS011;9654;52.302;8.120;2023-06-26T00:17:20;10.27;;;7.70;;
19043;SDS011;9654;52.302;8.120;2023-06-26T00:19:47;10.33;;;7.40;;
19043;SDS011;9654;52.302;8.120;2023-06-26T00:22:14;8.40;;;7.23;;
19043;SDS011;9654;52.302;8.120;2023-06-26T00:24:41;8.13;;;6.97;;
19043;SDS011;9654;52.302;8.120;2023-06-26T00:27:09;7.83;;;7.03;;
19043;SDS011;9654;52.302;8.120;2023-06-26T00:29:36;9.03;;;7.80;;
19043;SDS011;9654;52.302;8.120;2023-06-26T00:32:05;8.40;;;7.37;;
19043;SDS011;9654;52.302;8.120;2023-06-26T00:34:32;8.17;;;7.47;;
19043;SDS011;9654;52.302;8.120;2023-06-26T00:36:59;9.27;;;6.83;;
19043;SDS011;9654;52.302;8.120;2023-06-26T00:39:26;8.33;;;7.40;;
19043;SDS011;9654;52.302;8.120;2023-06-26T00:41:52;7.77;;;6.97;;
19043;SDS011;9654;52.302;8.120;2023-06-26T00:44:19;8.73;;;7.83;;
19043;SDS011;9654;52.302;8.120;2023-06-26T00:46:46;8.30;;;7.50;;
19043;SDS011;9654;52.302;8.120;2023-06-26T00:49:14;8.10;;;7.27;;
19043;SDS011;9654;52.302;8.120;2023-06-26T00:51:41;7.63;;;6.83;;
19043;SDS011;9654;52.302;8.120;2023-06-26T00:54:09;9.47;;;7.90;;
19043;SDS011;9654;52.302;8.120;2023-06-26T00:56:36;8.43;;;7.60;;
19043;SDS011;9654;52.302;8.120;2023-06-26T00:59:03;8.47;;;7.40;;
19043;SDS011;9654;52.302;8.120;2023-06-26T01:01:30;13.87;;;7.97;;
19043;SDS011;9654;52.302;8.120;2023-06-26T01:03:57;8.17;;;7.37;;
19043;SDS011;9654;52.302;8.120;2023-06-26T01:06:25;8.60;;;7.47;;
19043;SDS011;9654;52.302;8.120;2023-06-26T01:08:54;8.87;;;7.90;;
19043;SDS011;9654;52.302;8.120;2023-06-26T01:11:21;7.87;;;7.07;;
19043;SDS011;9654;52.302;8.120;2023-06-26T01:13:48;8.40;;;7.17;;
19043;SDS011;9654;52.302;8.120;2023-06-26T01:16:17;8.53;;;7.27;;
19043;SDS011;9654;52.302;8.120;2023-06-26T01:18:45;8.83;;;7.93;;
19043;SDS011;9654;52.302;8.120;2023-06-26T01:21:13;12.80;;;7.73;;
19043;SDS011;9654;52.302;8.120;2023-06-26T01:23:56;9.13;;;7.23;;
19043;SDS011;9654;52.302;8.120;2023-06-26T01:26:32;8.70;;;7.80;;
19043;SDS011;9654;52.302;8.120;2023-06-26T01:29:01;8.03;;;7.17;;
19043;SDS011;9654;52.302;8.120;2023-06-26T01:31:30;10.23;;;7.67;;
19043;SDS011;9654;52.302;8.120;2023-06-26T01:33:57;10.37;;;7.57;;
19043;SDS011;9654;52.302;8.120;2023-06-26T01:36:25;9.50;;;7.80;;
19043;SDS011;9654;52.302;8.120;2023-06-26T01:38:52;11.57;;;7.73;;
19043;SDS011;9654;52.302;8.120;2023-06-26T01:41:19;8.43;;;7.53;;
19043;SDS011;9654;52.302;8.120;2023-06-26T01:43:53;10.30;;;8.20;;
19043;SDS011;9654;52.302;8.120;2023-06-26T01:46:30;10.73;;;8.00;;
19043;SDS011;9654;52.302;8.120;2023-06-26T01:49:03;9.43;;;8.43;;
19043;SDS011;9654;52.302;8.120;2023-06-26T01:51:35;13.63;;;8.70;;
19043;SDS011;9654;52.302;8.120;2023-06-26T01:54:08;8.60;;;7.57;;
19043;SDS011;9654;52.302;8.120;2023-06-26T01:56:39;8.87;;;7.40;;
19043;SDS011;9654;52.302;8.120;2023-06-26T01:59:09;10.57;;;7.90;;
19043;SDS011;9654;52.302;8.120;2023-06-26T02:04:11;9.13;;;8.23;;
19043;SDS011;9654;52.302;8.120;2023-06-26T02:06:38;10.23;;;7.53;;
19043;SDS011;9654;52.302;8.120;2023-06-26T02:09:05;8.37;;;7.57;;
19043;SDS011;9654;52.302;8.120;2023-06-26T02:11:32;9.37;;;7.87;;
19043;SDS011;9654;52.302;8.120;2023-06-26T02:14:00;9.87;;;8.13;;
19043;SDS011;9654;52.302;8.120;2023-06-26T02:16:29;9.27;;;8.30;;
19043;SDS011;9654;52.302;8.120;2023-06-26T02:18:56;8.40;;;7.60;;
19043;SDS011;9654;52.302;8.120;2023-06-26T02:21:23;9.80;;;7.60;;
19043;SDS011;9654;52.302;8.120;2023-06-26T02:23:49;11.17;;;8.10;;
19043;SDS011;9654;52.302;8.120;2023-06-26T02:26:16;9.20;;;8.23;;
19043;SDS011;9654;52.302;8.120;2023-06-26T02:28:43;13.17;;;8.97;;
19043;SDS011;9654;52.302;8.120;2023-06-26T02:31:10;11.70;;;8.33;;
19043;SDS011;9654;52.302;8.120;2023-06-26T02:33:38;9.20;;;8.23;;
19043;SDS011;9654;52.302;8.120;2023-06-26T02:36:05;12.23;;;8.63;;
19043;SDS011;9654;52.302;8.120;2023-06-26T02:38:32;11.43;;;8.53;;
19043;SDS011;9654;52.302;8.120;2023-06-26T02:40:58;10.30;;;8.10;;
19043;SDS011;9654;52.302;8.120;2023-06-26T02:43:25;9.77;;;8.37;;
19043;SDS011;9654;52.302;8.120;2023-06-26T02:45:52;10.87;;;7.70;;
19043;SDS011;9654;52.302;8.120;2023-06-26T02:48:19;10.93;;;7.37;;
19043;SDS011;9654;52.302;8.120;2023-06-26T02:50:47;9.90;;;7.67;;
19043;SDS011;9654;52.302;8.120;2023-06-26T02:53:14;8.77;;;7.20;;
19043;SDS011;9654;52.302;8.120;2023-06-26T02:55:41;8.43;;;6.93;;
19043;SDS011;9654;52.302;8.120;2023-06-26T02:58:07;11.37;;;7.67;;
19043;SDS011;9654;52.302;8.120;2023-06-26T03:00:34;9.40;;;7.43;;
19043;SDS011;9654;52.302;8.120;2023-06-26T03:03:06;10.47;;;7.83;;
19043;SDS011;9654;52.302;8.120;2023-06-26T03:05:33;10.30;;;7.43;;
19043;SDS011;9654;52.302;8.120;2023-06-26T03:08:01;8.50;;;7.60;;
19043;SDS011;9654;52.302;8.120;2023-06-26T03:10:28;9.27;;;8.10;;
19043;SDS011;9654;52.302;8.120;2023-06-26T03:12:55;8.63;;;7.73;;
19043;SDS011;9654;52.302;8.120;2023-06-26T03:15:22;11.00;;;7.70;;
19043;SDS011;9654;52.302;8.120;2023-06-26T03:17:49;9.40;;;7.90;;
19043;SDS011;9654;52.302;8.120;2023-06-26T03:20:16;10.07;;;8.03;;
19043;SDS011;9654;52.302;8.120;2023-06-26T03:22:42;10.30;;;7.23;;
19043;SDS011;9654;52.302;8.120;2023-06-26T03:25:11;8.90;;;7.50;;
19043;SDS011;9654;52.302;8.120;2023-06-26T03:27:37;7.73;;;6.97;;
19043;SDS011;9654;52.302;8.120;2023-06-26T03:30:04;10.90;;;7.77;;
19043;SDS011;9654;52.302;8.120;2023-06-26T03:32:31;12.03;;;7.43;;
19043;SDS011;9654;52.302;8.120;2023-06-26T03:34:58;9.07;;;7.23;;
19043;SDS011;9654;52.302;8.120;2023-06-26T03:37:27;8.53;;;7.57;;
19043;SDS011;9654;52.302;8.120;2023-06-26T03:39:53;8.20;;;7.30;;
19043;SDS011;9654;52.302;8.120;2023-06-26T03:42:21;7.57;;;6.87;;
19043;SDS011;9654;52.302;8.120;2023-06-26T03:44:48;13.27;;;9.00;;
19043;SDS011;9654;52.302;8.120;2023-06-26T03:47:15;10.93;;;8.20;;
19043;SDS011;9654;52.302;8.120;2023-06-26T03:49:42;8.53;;;7.40;;
19043;SDS011;9654;52.302;8.120;2023-06-26T03:52:09;8.47;;;6.90;;
19043;SDS011;9654;52.302;8.120;2023-06-26T03:54:35;8.97;;;7.33;;
19043;SDS011;9654;52.302;8.120;2023-06-26T03:57:02;10.37;;;6.83;;
19043;SDS011;9654;52.302;8.120;2023-06-26T03:59:30;9.13;;;6.47;;
19043;SDS011;9654;52.302;8.120;2023-06-26T04:01:57;9.07;;;6.87;;
19043;SDS011;9654;52.302;8.120;2023-06-26T04:04:24;8.60;;;6.93;;
19043;SDS011;9654;52.302;8.120;2023-06-26T04:06:51;10.73;;;6.60;;
19043;SDS011;9654;52.302;8.120;2023-06-26T04:09:17;10.70;;;6.60;;
19043;SDS011;9654;52.302;8.120;2023-06-26T04:11:44;6.93;;;6.23;;
19043;SDS011;9654;52.302;8.120;2023-06-26T04:14:11;8.77;;;6.73;;
19043;SDS011;9654;52.302;8.120;2023-06-26T04:16:39;8.63;;;6.80;;
19043;SDS011;9654;52.302;8.120;2023-06-26T04:19:06;7.90;;;6.20;;
19043;SDS011;9654;52.302;8.120;2023-06-26T04:21:33;7.63;;;5.77;;
19043;SDS011;9654;52.302;8.120;2023-06-26T04:23:59;8.77;;;6.23;;
19043;SDS011;9654;52.302;8.120;2023-06-26T04:26:26;9.30;;;6.47;;
19043;SDS011;9654;52.302;8.120;2023-06-26T04:28:53;7.33;;;5.77;;
19043;SDS011;9654;52.302;8.120;2023-06-26T04:31:20;7.93;;;5.80;;
19043;SDS011;9654;52.302;8.120;2023-06-26T04:33:49;10.53;;;6.50;;
19043;SDS011;9654;52.302;8.120;2023-06-26T04:36:16;9.07;;;5.90;;
19043;SDS011;9654;52.302;8.120;2023-06-26T04:38:43;8.70;;;6.17;;
19043;SDS011;9654;52.302;8.120;2023-06-26T04:41:10;8.17;;;5.93;;
19043;SDS011;9654;52.302;8.120;2023-06-26T04:43:37;12.53;;;7.20;;
19043;SDS011;9654;52.302;8.120;2023-06-26T04:46:04;9.87;;;6.83;;
19043;SDS011;9654;52.302;8.120;2023-06-26T04:48:31;6.63;;;5.97;;
19043;SDS011;9654;52.302;8.120;2023-06-26T04:50:59;6.93;;;6.23;;
19043;SDS011;9654;52.302;8.120;2023-06-26T04:53:26;7.73;;;6.10;;
19043;SDS011;9654;52.302;8.120;2023-06-26T04:55:53;7.83;;;6.30;;
19043;SDS011;9654;52.302;8.120;2023-06-26T04:58:19;11.23;;;6.47;;
19043;SDS011;9654;52.302;8.120;2023-06-26T05:00:46;7.90;;;5.97;;
19043;SDS011;9654;52.302;8.120;2023-06-26T05:03:14;8.10;;;6.47;;
19043;SDS011;9654;52.302;8.120;2023-06-26T05:05:42;8.90;;;6.40;;
19043;SDS011;9654;52.302;8.120;2023-06-26T05:08:17;11.50;;;6.50;;
19043;SDS011;9654;52.302;8.120;2023-06-26T05:10:45;10.97;;;6.43;;
19043;SDS011;9654;52.302;8.120;2023-06-26T05:13:12;8.00;;;6.17;;
19043;SDS011;9654;52.302;8.120;2023-06-26T05:15:42;8.97;;;6.03;;
19043;SDS011;9654;52.302;8.120;2023-06-26T05:18:09;7.70;;;6.33;;
19043;SDS011;9654;52.302;8.120;2023-06-26T05:20:36;10.73;;;6.87;;
19043;SDS011;9654;52.302;8.120;2023-06-26T05:23:03;7.97;;;6.10;;
19043;SDS011;9654;52.302;8.120;2023-06-26T05:25:32;8.88;;;6.68;;
19043;SDS011;9654;52.302;8.120;2023-06-26T05:28:00;9.27;;;6.77;;
19043;SDS011;9654;52.302;8.120;2023-06-26T05:30:27;10.03;;;7.10;;
19043;SDS011;9654;52.302;8.120;2023-06-26T05:32:56;8.80;;;6.40;;
19043;SDS011;9654;52.302;8.120;2023-06-26T05:35:25;10.07;;;7.30;;
19043;SDS011;9654;52.302;8.120;2023-06-26T05:37:55;9.63;;;7.25;;
19043;SDS011;9654;52.302;8.120;2023-06-26T05:40:23;12.00;;;7.90;;
19043;SDS011;9654;52.302;8.120;2023-06-26T05:42:52;8.52;;;7.05;;
19043;SDS011;9654;52.302;8.120;2023-06-26T05:45:19;9.30;;;7.63;;
19043;SDS011;9654;52.302;8.120;2023-06-26T05:47:45;11.73;;;8.82;;
19043;SDS011;9654;52.302;8.120;2023-06-26T05:50:13;11.53;;;7.47;;
19043;SDS011;9654;52.302;8.120;2023-06-26T05:52:41;10.20;;;8.00;;
19043;SDS011;9654;52.302;8.120;2023-06-26T05:55:09;9.77;;;7.87;;
19043;SDS011;9654;52.302;8.120;2023-06-26T05:57:37;13.77;;;8.83;;
19043;SDS011;9654;52.302;8.120;2023-06-26T06:00:07;14.57;;;8.53;;
19043;SDS011;9654;52.302;8.120;2023-06-26T06:02:35;10.20;;;8.17;;
19043;SDS011;9654;52.302;8.120;2023-06-26T06:05:03;12.50;;;8.50;;
19043;SDS011;9654;52.302;8.120;2023-06-26T06:07:30;15.68;;;8.77;;
19043;SDS011;9654;52.302;8.120;2023-06-26T06:09:57;11.70;;;8.07;;
19043;SDS011;9654;52.302;8.120;2023-06-26T06:12:24;14.85;;;8.73;;
19043;SDS011;9654;52.302;8.120;2023-06-26T06:14:51;12.40;;;8.45;;
19043;SDS011;9654;52.302;8.120;2023-06-26T06:17:19;11.63;;;8.93;;
19043;SDS011;9654;52.302;8.120;2023-06-26T06:19:46;11.40;;;8.35;;
19043;SDS011;9654;52.302;8.120;2023-06-26T06:22:13;10.60;;;8.82;;
19043;SDS011;9654;52.302;8.120;2023-06-26T06:24:41;11.15;;;9.38;;
19043;SDS011;9654;52.302;8.120;2023-06-26T06:27:08;12.20;;;8.85;;
19043;SDS011;9654;52.302;8.120;2023-06-26T06:29:35;13.20;;;9.80;;
19043;SDS011;9654;52.302;8.120;2023-06-26T06:32:02;13.23;;;9.80;;
19043;SDS011;9654;52.302;8.120;2023-06-26T06:34:31;14.63;;;10.13;;
19043;SDS011;9654;52.302;8.120;2023-06-26T06:36:58;11.75;;;9.05;;
19043;SDS011;9654;52.302;8.120;2023-06-26T06:39:24;12.77;;;9.55;;
19043;SDS011;9654;52.302;8.120;2023-06-26T06:41:51;13.60;;;9.82;;
19043;SDS011;9654;52.302;8.120;2023-06-26T06:44:18;13.60;;;8.90;;
19043;SDS011;9654;52.302;8.120;2023-06-26T06:46:45;12.60;;;9.52;;
19043;SDS011;9654;52.302;8.120;2023-06-26T06:49:11;15.45;;;9.93;;
19043;SDS011;9654;52.302;8.120;2023-06-26T06:51:39;31.67;;;9.70;;
19043;SDS011;9654;52.302;8.120;2023-06-26T06:54:06;12.18;;;9.45;;
19043;SDS011;9654;52.302;8.120;2023-06-26T06:56:33;14.07;;;9.32;;
19043;SDS011;9654;52.302;8.120;2023-06-26T06:59:00;12.10;;;9.73;;
19043;SDS011;9654;52.302;8.120;2023-06-26T07:01:27;11.02;;;8.95;;
19043;SDS011;9654;52.302;8.120;2023-06-26T07:03:54;12.27;;;9.10;;
19043;SDS011;9654;52.302;8.120;2023-06-26T07:06:20;12.70;;;8.88;;
19043;SDS011;9654;52.302;8.120;2023-06-26T07:08:48;10.48;;;8.20;;
19043;SDS011;9654;52.302;8.120;2023-06-26T07:11:15;15.90;;;9.35;;
19043;SDS011;9654;52.302;8.120;2023-06-26T07:13:42;14.48;;;10.18;;
19043;SDS011;9654;52.302;8.120;2023-06-26T07:16:09;13.57;;;8.85;;
19043;SDS011;9654;52.302;8.120;2023-06-26T07:18:36;13.10;;;9.32;;
19043;SDS011;9654;52.302;8.120;2023-06-26T07:21:04;13.85;;;9.50;;
19043;SDS011;9654;52.302;8.120;2023-06-26T07:23:31;16.58;;;9.82;;
19043;SDS011;9654;52.302;8.120;2023-06-26T07:25:59;14.68;;;9.73;;
19043;SDS011;9654;52.302;8.120;2023-06-26T07:28:26;12.43;;;9.25;;
19043;SDS011;9654;52.302;8.120;2023-06-26T07:30:52;11.20;;;8.43;;
19043;SDS011;9654;52.302;8.120;2023-06-26T07:33:19;12.20;;;8.93;;
19043;SDS011;9654;52.302;8.120;2023-06-26T07:35:46;13.38;;;8.35;;
19043;SDS011;9654;52.302;8.120;2023-06-26T07:38:13;14.60;;;8.73;;
19043;SDS011;9654;52.302;8.120;2023-06-26T07:40:40;12.93;;;7.65;;
19043;SDS011;9654;52.302;8.120;2023-06-26T07:43:08;15.50;;;8.18;;
19043;SDS011;9654;52.302;8.120;2023-06-26T07:45:34;12.52;;;8.52;;
19043;SDS011;9654;52.302;8.120;2023-06-26T07:48:01;22.17;;;9.20;;
19043;SDS011;9654;52.302;8.120;2023-06-26T07:50:28;12.53;;;8.00;;
19043;SDS011;9654;52.302;8.120;2023-06-26T07:52:55;13.97;;;8.60;;
19043;SDS011;9654;52.302;8.120;2023-06-26T07:55:22;12.00;;;8.30;;
19043;SDS011;9654;52.302;8.120;2023-06-26T07:57:48;13.80;;;9.30;;
19043;SDS011;9654;52.302;8.120;2023-06-26T08:00:18;13.67;;;8.50;;
19043;SDS011;9654;52.302;8.120;2023-06-26T08:02:45;13.60;;;8.70;;
19043;SDS011;9654;52.302;8.120;2023-06-26T08:05:12;14.03;;;8.20;;
19043;SDS011;9654;52.302;8.120;2023-06-26T08:07:39;16.90;;;7.77;;
19043;SDS011;9654;52.302;8.120;2023-06-26T08:10:06;15.17;;;7.57;;
19043;SDS011;9654;52.302;8.120;2023-06-26T08:12:33;13.90;;;7.17;;
19043;SDS011;9654;52.302;8.120;2023-06-26T08:15:01;14.17;;;7.37;;
19043;SDS011;9654;52.302;8.120;2023-06-26T08:17:31;12.83;;;7.53;;
19043;SDS011;9654;52.302;8.120;2023-06-26T08:19:58;15.87;;;7.73;;
19043;SDS011;9654;52.302;8.120;2023-06-26T08:22:24;15.23;;;7.10;;
19043;SDS011;9654;52.302;8.120;2023-06-26T08:24:51;12.57;;;7.33;;
19043;SDS011;9654;52.302;8.120;2023-06-26T08:27:18;10.90;;;6.60;;
19043;SDS011;9654;52.302;8.120;2023-06-26T08:29:44;10.87;;;6.23;;
19043;SDS011;9654;52.302;8.120;2023-06-26T08:32:11;9.93;;;5.87;;
19043;SDS011;9654;52.302;8.120;2023-06-26T08:34:39;9.53;;;5.77;;
19043;SDS011;9654;52.302;8.120;2023-06-26T08:37:06;14.37;;;6.30;;
19043;SDS011;9654;52.302;8.120;2023-06-26T08:39:34;12.73;;;6.20;;
19043;SDS011;9654;52.302;8.120;2023-06-26T08:42:00;12.93;;;6.80;;
19043;SDS011;9654;52.302;8.120;2023-06-26T08:44:27;12.60;;;6.68;;
19043;SDS011;9654;52.302;8.120;2023-06-26T08:46:54;14.60;;;6.68;;
19043;SDS011;9654;52.302;8.120;2023-06-26T08:49:22;13.43;;;6.68;;
19043;SDS011;9654;52.302;8.120;2023-06-26T08:52:01;11.52;;;6.38;;
19043;SDS011;9654;52.302;8.120;2023-06-26T08:54:34;13.45;;;6.82;;
19043;SDS011;9654;52.302;8.120;2023-06-26T08:57:09;9.52;;;5.95;;
19043;SDS011;9654;52.302;8.120;2023-06-26T08:59:36;10.73;;;6.38;;
19043;SDS011;9654;52.302;8.120;2023-06-26T09:02:04;11.40;;;7.45;;
19043;SDS011;9654;52.302;8.120;2023-06-26T09:04:31;10.93;;;6.07;;
19043;SDS011;9654;52.302;8.120;2023-06-26T09:06:59;12.37;;;6.97;;
19043;SDS011;9654;52.302;8.120;2023-06-26T09:09:26;15.00;;;7.20;;
19043;SDS011;9654;52.302;8.120;2023-06-26T09:11:53;13.13;;;7.17;;
19043;SDS011;9654;52.302;8.120;2023-06-26T09:14:20;10.15;;;6.68;;
19043;SDS011;9654;52.302;8.120;2023-06-26T09:16:47;15.75;;;7.18;;
19043;SDS011;9654;52.302;8.120;2023-06-26T09:19:15;19.55;;;6.70;;
19043;SDS011;9654;52.302;8.120;2023-06-26T09:21:42;8.30;;;5.18;;
19043;SDS011;9654;52.302;8.120;2023-06-26T09:24:11;12.13;;;4.97;;
19043;SDS011;9654;52.302;8.120;2023-06-26T09:26:38;8.77;;;5.00;;
19043;SDS011;9654;52.302;8.120;2023-06-26T09:29:06;8.90;;;4.85;;
19043;SDS011;9654;52.302;8.120;2023-06-26T09:31:33;8.93;;;4.70;;
19043;SDS011;9654;52.302;8.120;2023-06-26T09:34:03;13.52;;;4.80;;
19043;SDS011;9654;52.302;8.120;2023-06-26T09:36:30;10.07;;;4.97;;
19043;SDS011;9654;52.302;8.120;2023-06-26T09:38:58;8.75;;;4.60;;
19043;SDS011;9654;52.302;8.120;2023-06-26T09:41:27;10.93;;;4.95;;
19043;SDS011;9654;52.302;8.120;2023-06-26T09:43:56;4.72;;;3.17;;
19043;SDS011;9654;52.302;8.120;2023-06-26T09:46:28;4.63;;;3.67;;
19043;SDS011;9654;52.302;8.120;2023-06-26T09:48:59;7.15;;;3.30;;
19043;SDS011;9654;52.302;8.120;2023-06-26T09:51:28;5.03;;;2.90;;
19043;SDS011;9654;52.302;8.120;2023-06-26T09:53:56;6.38;;;3.38;;
19043;SDS011;9654;52.302;8.120;2023-06-26T09:56:23;8.40;;;3.70;;
19043;SDS011;9654;52.302;8.120;2023-06-26T09:58:51;3.60;;;2.22;;
19043;SDS011;9654;52.302;8.120;2023-06-26T10:01:19;5.97;;;2.80;;
19043;SDS011;9654;52.302;8.120;2023-06-26T10:03:46;5.30;;;2.55;;
19043;SDS011;9654;52.302;8.120;2023-06-26T10:06:13;7.13;;;2.83;;
19043;SDS011;9654;52.302;8.120;2023-06-26T10:08:41;4.17;;;2.70;;
19043;SDS011;9654;52.302;8.120;2023-06-26T10:11:09;4.50;;;3.17;;
19043;SDS011;9654;52.302;8.120;2023-06-26T10:13:41;3.67;;;2.58;;
19043;SDS011;9654;52.302;8.120;2023-06-26T10:16:13;4.22;;;3.00;;
19043;SDS011;9654;52.302;8.120;2023-06-26T10:18:48;6.65;;;2.67;;
19043;SDS011;9654;52.302;8.120;2023-06-26T10:21:17;6.72;;;2.67;;
19043;SDS011;9654;52.302;8.120;2023-06-26T10:23:44;4.47;;;2.65;;
19043;SDS011;9654;52.302;8.120;2023-06-26T10:26:11;8.02;;;2.53;;
19043;SDS011;9654;52.302;8.120;2023-06-26T10:28:40;3.22;;;2.67;;
19043;SDS011;9654;52.302;8.120;2023-06-26T10:31:08;4.45;;;2.10;;
19043;SDS011;9654;52.302;8.120;2023-06-26T10:33:38;4.40;;;2.22;;
19043;SDS011;9654;52.302;8.120;2023-06-26T10:36:12;2.45;;;2.00;;
19043;SDS011;9654;52.302;8.120;2023-06-26T10:38:48;4.53;;;2.30;;
19043;SDS011;9654;52.302;8.120;2023-06-26T10:41:15;4.70;;;2.30;;
19043;SDS011;9654;52.302;8.120;2023-06-26T10:43:48;4.25;;;2.00;;
19043;SDS011;9654;52.302;8.120;2023-06-26T10:46:15;5.85;;;2.80;;
19043;SDS011;9654;52.302;8.120;2023-06-26T10:48:58;6.05;;;2.20;;
19043;SDS011;9654;52.302;8.120;2023-06-26T10:51:26;7.80;;;2.20;;
19043;SDS011;9654;52.302;8.120;2023-06-26T10:53:54;2.75;;;2.13;;
19043;SDS011;9654;52.302;8.120;2023-06-26T10:56:21;3.53;;;1.95;;
19043;SDS011;9654;52.302;8.120;2023-06-26T10:59:16;1.92;;;1.67;;
19043;SDS011;9654;52.302;8.120;2023-06-26T11:01:44;4.40;;;2.08;;
19043;SDS011;9654;52.302;8.120;2023-06-26T11:04:14;2.97;;;1.70;;
19043;SDS011;9654;52.302;8.120;2023-06-26T11:06:41;2.00;;;1.75;;
19043;SDS011;9654;52.302;8.120;2023-06-26T11:09:14;1.90;;;1.75;;
19043;SDS011;9654;52.302;8.120;2023-06-26T11:11:59;3.10;;;2.00;;
19043;SDS011;9654;52.302;8.120;2023-06-26T11:14:32;5.15;;;2.33;;
19043;SDS011;9654;52.302;8.120;2023-06-26T11:17:01;2.10;;;1.92;;
19043;SDS011;9654;52.302;8.120;2023-06-26T11:19:30;2.30;;;1.90;;
19043;SDS011;9654;52.302;8.120;2023-06-26T11:21:58;4.97;;;2.17;;
19043;SDS011;9654;52.302;8.120;2023-06-26T11:24:26;3.08;;;2.25;;
19043;SDS011;9654;52.302;8.120;2023-06-26T11:26:53;4.25;;;1.98;;
19043;SDS011;9654;52.302;8.120;2023-06-26T11:29:25;7.22;;;2.17;;
19043;SDS011;9654;52.302;8.120;2023-06-26T11:31:57;2.30;;;2.10;;
19043;SDS011;9654;52.302;8.120;2023-06-26T11:34:25;3.67;;;2.22;;
19043;SDS011;9654;52.302;8.120;2023-06-26T11:36:57;4.80;;;2.00;;
19043;SDS011;9654;52.302;8.120;2023-06-26T11:39:26;3.70;;;2.55;;
19043;SDS011;9654;52.302;8.120;2023-06-26T11:41:54;3.13;;;1.80;;
19043;SDS011;9654;52.302;8.120;2023-06-26T11:44:21;2.85;;;2.00;;
19043;SDS011;9654;52.302;8.120;2023-06-26T11:46:47;4.47;;;2.00;;
19043;SDS011;9654;52.302;8.120;2023-06-26T11:49:20;3.45;;;2.17;;
19043;SDS011;9654;52.302;8.120;2023-06-26T11:51:49;5.70;;;2.40;;
19043;SDS011;9654;52.302;8.120;2023-06-26T11:54:22;4.05;;;2.00;;
19043;SDS011;9654;52.302;8.120;2023-06-26T11:56:53;4.63;;;2.20;;
19043;SDS011;9654;52.302;8.120;2023-06-26T11:59:22;4.68;;;2.40;;
19043;SDS011;9654;52.302;8.120;2023-06-26T12:01:50;9.68;;;2.38;;
19043;SDS011;9654;52.302;8.120;2023-06-26T12:04:18;5.70;;;2.10;;
19043;SDS011;9654;52.302;8.120;2023-06-26T12:06:46;4.25;;;2.08;;
19043;SDS011;9654;52.302;8.120;2023-06-26T12:09:15;6.28;;;1.90;;
19043;SDS011;9654;52.302;8.120;2023-06-26T12:11:45;4.32;;;1.83;;
19043;SDS011;9654;52.302;8.120;2023-06-26T12:14:14;2.80;;;1.90;;
19043;SDS011;9654;52.302;8.120;2023-06-26T12:16:42;4.63;;;2.17;;
19043;SDS011;9654;52.302;8.120;2023-06-26T12:19:09;4.20;;;2.25;;
19043;SDS011;9654;52.302;8.120;2023-06-26T12:24:20;4.80;;;2.60;;
19043;SDS011;9654;52.302;8.120;2023-06-26T12:26:49;5.22;;;2.00;;
19043;SDS011;9654;52.302;8.120;2023-06-26T12:29:18;3.72;;;2.05;;
19043;SDS011;9654;52.302;8.120;2023-06-26T12:31:46;3.47;;;2.47;;
19043;SDS011;9654;52.302;8.120;2023-06-26T12:34:17;4.53;;;2.15;;
19043;SDS011;9654;52.302;8.120;2023-06-26T12:36:46;3.50;;;2.10;;
19043;SDS011;9654;52.302;8.120;2023-06-26T12:39:15;2.60;;;2.17;;
19043;SDS011;9654;52.302;8.120;2023-06-26T12:41:47;2.13;;;1.83;;
19043;SDS011;9654;52.302;8.120;2023-06-26T12:44:18;7.88;;;2.33;;
19043;SDS011;9654;52.302;8.120;2023-06-26T12:46:46;3.63;;;2.13;;
19043;SDS011;9654;52.302;8.120;2023-06-26T12:49:14;3.95;;;1.98;;
19043;SDS011;9654;52.302;8.120;2023-06-26T12:51:41;2.65;;;2.13;;
19043;SDS011;9654;52.302;8.120;2023-06-26T12:54:08;3.75;;;2.38;;
19043;SDS011;9654;52.302;8.120;2023-06-26T12:56:35;4.75;;;2.40;;
19043;SDS011;9654;52.302;8.120;2023-06-26T12:59:04;3.45;;;2.35;;
19043;SDS011;9654;52.302;8.120;2023-06-26T13:01:30;6.53;;;2.70;;
19043;SDS011;9654;52.302;8.120;2023-06-26T13:03:57;4.40;;;2.40;;
19043;SDS011;9654;52.302;8.120;2023-06-26T13:06:24;2.45;;;2.22;;
19043;SDS011;9654;52.302;8.120;2023-06-26T13:08:51;5.70;;;2.40;;
19043;SDS011;9654;52.302;8.120;2023-06-26T13:11:18;5.45;;;2.88;;
19043;SDS011;9654;52.302;8.120;2023-06-26T13:13:46;2.38;;;2.17;;
19043;SDS011;9654;52.302;8.120;2023-06-26T13:16:14;4.80;;;2.22;;
19043;SDS011;9654;52.302;8.120;2023-06-26T13:18:41;5.05;;;2.58;;
19043;SDS011;9654;52.302;8.120;2023-06-26T13:21:08;6.65;;;2.28;;
19043;SDS011;9654;52.302;8.120;2023-06-26T13:23:34;8.20;;;2.58;;
19043;SDS011;9654;52.302;8.120;2023-06-26T13:26:01;3.88;;;2.05;;
19043;SDS011;9654;52.302;8.120;2023-06-26T13:28:28;4.50;;;2.10;;
19043;SDS011;9654;52.302;8.120;2023-06-26T13:30:55;3.72;;;2.13;;
19043;SDS011;9654;52.302;8.120;2023-06-26T13:33:23;2.42;;;2.10;;
19043;SDS011;9654;52.302;8.120;2023-06-26T13:35:50;4.65;;;2.30;;
19043;SDS011;9654;52.302;8.120;2023-06-26T13:38:18;5.13;;;1.98;;
19043;SDS011;9654;52.302;8.120;2023-06-26T13:40:49;3.15;;;2.15;;
19043;SDS011;9654;52.302;8.120;2023-06-26T13:43:16;4.00;;;1.58;;
19043;SDS011;9654;52.302;8.120;2023-06-26T13:45:43;6.78;;;2.13;;
19043;SDS011;9654;52.302;8.120;2023-06-26T13:48:09;6.00;;;1.52;;
19043;SDS011;9654;52.302;8.120;2023-06-26T13:50:37;4.03;;;2.20;;
19043;SDS011;9654;52.302;8.120;2023-06-26T13:53:04;4.10;;;1.63;;
19043;SDS011;9654;52.302;8.120;2023-06-26T13:55:33;4.53;;;1.77;;
19043;SDS011;9654;52.302;8.120;2023-06-26T13:58:03;7.88;;;2.15;;
19043;SDS011;9654;52.302;8.120;2023-06-26T14:00:30;2.45;;;1.58;;
19043;SDS011;9654;52.302;8.120;2023-06-26T14:02:58;6.43;;;1.80;;
19043;SDS011;9654;52.302;8.120;2023-06-26T14:05:25;3.58;;;1.73;;
19043;SDS011;9654;52.302;8.120;2023-06-26T14:07:53;3.08;;;1.58;;
19043;SDS011;9654;52.302;8.120;2023-06-26T14:10:20;6.57;;;1.75;;
19043;SDS011;9654;52.302;8.120;2023-06-26T14:12:47;5.70;;;1.85;;
19043;SDS011;9654;52.302;8.120;2023-06-26T14:15:14;6.25;;;2.05;;
19043;SDS011;9654;52.302;8.120;2023-06-26T14:17:41;6.25;;;1.60;;
19043;SDS011;9654;52.302;8.120;2023-06-26T14:20:08;4.25;;;1.60;;
19043;SDS011;9654;52.302;8.120;2023-06-26T14:22:38;6.20;;;1.65;;
19043;SDS011;9654;52.302;8.120;2023-06-26T14:25:06;3.17;;;1.77;;
19043;SDS011;9654;52.302;8.120;2023-06-26T14:27:34;2.70;;;1.50;;
19043;SDS011;9654;52.302;8.120;2023-06-26T14:30:01;5.10;;;1.42;;
19043;SDS011;9654;52.302;8.120;2023-06-26T14:32:27;5.20;;;1.38;;
19043;SDS011;9654;52.302;8.120;2023-06-26T14:34:54;4.15;;;1.48;;
19043;SDS011;9654;52.302;8.120;2023-06-26T14:37:21;4.68;;;1.20;;
19043;SDS011;9654;52.302;8.120;2023-06-26T14:39:49;1.98;;;1.88;;
19043;SDS011;9654;52.302;8.120;2023-06-26T14:42:17;6.50;;;1.67;;
19043;SDS011;9654;52.302;8.120;2023-06-26T14:44:44;3.17;;;1.27;;
19043;SDS011;9654;52.302;8.120;2023-06-26T14:47:11;3.00;;;1.35;;
19043;SDS011;9654;52.302;8.120;2023-06-26T14:49:38;2.03;;;1.23;;
19043;SDS011;9654;52.302;8.120;2023-06-26T14:52:05;6.38;;;1.63;;
19043;SDS011;9654;52.302;8.120;2023-06-26T14:54:33;5.72;;;1.90;;
19043;SDS011;9654;52.302;8.120;2023-06-26T14:57:01;5.30;;;0.98;;
19043;SDS011;9654;52.302;8.120;2023-06-26T14:59:29;2.53;;;1.20;;
19043;SDS011;9654;52.302;8.120;2023-06-26T15:01:56;3.00;;;0.93;;
19043;SDS011;9654;52.302;8.120;2023-06-26T15:04:23;4.88;;;1.05;;